createdAt,value
2018-11-28T00:00:33.616Z,22.73
2018-11-28T00:03:05.299Z,23.53
2018-11-28T00:05:33.388Z,23.07
2018-11-28T00:08:01.428Z,24.23
2018-11-28T00:10:29.389Z,25.80
2018-11-28T00:12:58.280Z,22.87
2018-11-28T00:15:26.584Z,22.13
2018-11-28T00:17:54.820Z,26.77
2018-11-28T00:20:24.296Z,23.50
2018-11-28T00:22:52.168Z,22.50
2018-11-28T00:25:20.155Z,23.80
2018-11-28T00:27:48.014Z,23.63
2018-11-28T00:30:19.771Z,22.93
2018-11-28T00:32:47.752Z,22.07
2018-11-28T00:35:17.099Z,25.93
2018-11-28T00:37:44.951Z,22.77
2018-11-28T00:40:15.536Z,24.90
2018-11-28T00:42:43.397Z,23.73
2018-11-28T00:45:14.184Z,25.03
2018-11-28T00:47:42.365Z,22.97
2018-11-28T00:50:21.680Z,24.83
2018-11-28T00:52:49.644Z,21.97
2018-11-28T00:55:18.054Z,21.10
2018-11-28T00:57:46.310Z,22.97
2018-11-28T01:00:18.390Z,23.20
2018-11-28T01:02:46.804Z,24.03
2018-11-28T01:05:15.344Z,26.77
2018-11-28T01:07:43.945Z,26.67
2018-11-28T01:10:13.854Z,26.53
2018-11-28T01:12:42.066Z,25.83
2018-11-28T01:15:11.599Z,26.83
2018-11-28T01:17:39.968Z,24.50
2018-11-28T01:20:13.290Z,24.20
2018-11-28T01:22:41.407Z,23.03
2018-11-28T01:25:13.570Z,24.00
2018-11-28T01:27:42.036Z,23.93
2018-11-28T01:30:17.188Z,24.57
2018-11-28T01:32:45.402Z,25.30
2018-11-28T01:35:14.211Z,23.83
2018-11-28T01:37:42.328Z,24.40
2018-11-28T01:40:22.431Z,24.27
2018-11-28T01:42:51.034Z,24.03
2018-11-28T01:45:20.867Z,20.87
2018-11-28T01:47:49.164Z,22.77
2018-11-28T01:50:19.279Z,25.43
2018-11-28T01:52:47.621Z,25.80
2018-11-28T01:55:26.124Z,23.07
2018-11-28T01:57:54.292Z,22.20
2018-11-28T02:00:24.930Z,23.17
2018-11-28T02:02:55.191Z,21.77
2018-11-28T02:05:23.109Z,21.50
2018-11-28T02:07:51.048Z,21.03
2018-11-28T02:10:19.463Z,23.17
2018-11-28T02:12:47.748Z,22.97
2018-11-28T02:15:17.992Z,22.90
2018-11-28T02:17:45.911Z,21.10
2018-11-28T02:20:15.732Z,22.07
2018-11-28T02:22:43.787Z,20.40
2018-11-28T02:25:12.705Z,21.30
2018-11-28T02:27:41.668Z,22.40
2018-11-28T02:30:11.169Z,23.10
2018-11-28T02:32:39.994Z,20.97
2018-11-28T02:35:09.684Z,23.30
2018-11-28T02:37:38.239Z,22.80
2018-11-28T02:40:08.941Z,23.87
2018-11-28T02:42:36.819Z,22.73
2018-11-28T02:45:07.702Z,23.00
2018-11-28T02:47:35.612Z,22.10
2018-11-28T02:50:04.186Z,22.60
2018-11-28T02:52:32.044Z,20.73
2018-11-28T02:55:00.342Z,20.70
2018-11-28T02:57:28.335Z,21.80
2018-11-28T02:59:56.417Z,20.60
2018-11-28T03:02:24.730Z,22.30
2018-11-28T03:04:53.928Z,20.80
2018-11-28T03:07:21.960Z,20.00
2018-11-28T03:09:50.037Z,21.80
2018-11-28T03:12:18.260Z,21.07
2018-11-28T03:14:46.486Z,20.93
2018-11-28T03:17:20.156Z,22.30
2018-11-28T03:19:48.184Z,20.83
2018-11-28T03:22:16.362Z,18.93
2018-11-28T03:24:44.576Z,22.93
2018-11-28T03:27:12.945Z,20.50
2018-11-28T03:29:41.014Z,26.23
2018-11-28T03:32:09.062Z,21.43
2018-11-28T03:34:37.079Z,20.30
2018-11-28T03:37:05.525Z,20.77
2018-11-28T03:39:33.768Z,23.07
2018-11-28T03:44:48.182Z,21.53
2018-11-28T03:47:16.567Z,21.20
2018-11-28T03:49:44.521Z,22.13
2018-11-28T03:52:12.728Z,21.37
2018-11-28T03:54:40.758Z,19.60
2018-11-28T03:57:09.103Z,22.37
2018-11-28T03:59:37.496Z,22.03
2018-11-28T04:02:06.084Z,20.90
2018-11-28T04:04:34.087Z,20.37
2018-11-28T04:07:02.234Z,24.53
2018-11-28T04:09:30.522Z,23.40
2018-11-28T04:11:59.009Z,22.57
2018-11-28T04:14:27.334Z,23.47
2018-11-28T04:16:55.294Z,24.67
2018-11-28T04:19:23.380Z,23.60
2018-11-28T04:21:51.377Z,24.03
2018-11-28T04:24:19.460Z,24.83
2018-11-28T04:26:47.573Z,26.20
2018-11-28T04:29:16.021Z,29.30
2018-11-28T04:31:44.155Z,27.87
2018-11-28T04:34:12.282Z,29.40
2018-11-28T04:36:40.226Z,27.63
2018-11-28T04:39:08.751Z,23.80
2018-11-28T04:41:37.002Z,29.97
2018-11-28T04:44:05.819Z,26.80
2018-11-28T04:46:34.786Z,29.20
2018-11-28T04:49:03.207Z,28.83
2018-11-28T04:51:31.401Z,25.10
2018-11-28T04:53:59.688Z,26.90
2018-11-28T04:56:28.348Z,29.30
2018-11-28T04:58:56.347Z,23.27
2018-11-28T05:01:24.817Z,27.07
2018-11-28T05:03:53.198Z,25.60
2018-11-28T05:06:33.013Z,25.60
2018-11-28T05:09:01.115Z,26.93
2018-11-28T05:11:29.035Z,24.77
2018-11-28T05:13:57.085Z,27.90
2018-11-28T05:16:24.831Z,24.73
2018-11-28T05:18:52.756Z,24.83
2018-11-28T05:21:20.663Z,24.40
2018-11-28T05:23:48.646Z,25.70
2018-11-28T05:26:17.233Z,25.77
2018-11-28T05:28:44.987Z,28.07
2018-11-28T05:31:12.767Z,26.23
2018-11-28T05:33:40.613Z,27.07
2018-11-28T05:36:08.474Z,27.43
2018-11-28T05:38:36.304Z,24.70
2018-11-28T05:41:04.739Z,26.63
2018-11-28T05:43:32.520Z,22.13
2018-11-28T05:46:00.403Z,24.93
2018-11-28T05:48:28.156Z,24.77
2018-11-28T05:50:56.276Z,21.30
2018-11-28T05:53:24.099Z,24.30
2018-11-28T05:55:52.084Z,26.53
2018-11-28T05:58:19.992Z,23.83
2018-11-28T06:00:47.765Z,25.67
2018-11-28T06:03:15.596Z,27.33
2018-11-28T06:05:43.773Z,22.97
2018-11-28T06:08:11.685Z,22.37
2018-11-28T06:10:39.465Z,25.57
2018-11-28T06:13:07.396Z,23.07
2018-11-28T06:15:35.325Z,22.90
2018-11-28T06:18:03.242Z,24.00
2018-11-28T06:20:31.171Z,25.10
2018-11-28T06:22:59.120Z,23.63
2018-11-28T06:25:26.900Z,26.10
2018-11-28T06:27:54.717Z,21.83
2018-11-28T06:30:22.457Z,22.57
2018-11-28T06:32:51.507Z,20.70
2018-11-28T06:35:17.887Z,24.23
2018-11-28T06:37:45.794Z,23.37
2018-11-28T06:40:14.407Z,20.40
2018-11-28T06:42:43.327Z,23.23
2018-11-28T06:45:13.927Z,25.20
2018-11-28T06:47:41.797Z,27.90
2018-11-28T06:50:13.640Z,25.10
2018-11-28T06:52:41.884Z,24.00
2018-11-28T06:55:13.203Z,25.27
2018-11-28T06:57:41.084Z,27.37
2018-11-28T07:00:11.912Z,24.03
2018-11-28T07:02:40.735Z,22.77
2018-11-28T07:05:08.632Z,26.87
2018-11-28T07:07:36.371Z,23.70
2018-11-28T07:10:05.422Z,24.63
2018-11-28T07:12:33.213Z,23.97
2018-11-28T07:15:00.991Z,23.00
2018-11-28T07:17:28.799Z,20.77
2018-11-28T07:19:56.603Z,26.53
2018-11-28T07:22:24.399Z,25.13
2018-11-28T07:24:52.266Z,22.77
2018-11-28T07:27:20.042Z,22.43
2018-11-28T07:29:47.756Z,23.63
2018-11-28T07:32:15.610Z,22.43
2018-11-28T07:34:43.328Z,21.90
2018-11-28T07:37:11.220Z,21.33
2018-11-28T07:39:39.001Z,22.50
2018-11-28T07:42:06.902Z,24.23
2018-11-28T07:44:34.714Z,25.17
2018-11-28T07:47:02.711Z,18.70
2018-11-28T07:49:30.513Z,18.80
2018-11-28T07:51:58.228Z,25.07
2018-11-28T07:54:26.119Z,19.70
2018-11-28T07:56:53.809Z,21.40
2018-11-28T07:59:21.531Z,22.87
2018-11-28T08:01:49.349Z,19.07
2018-11-28T08:04:17.262Z,21.73
2018-11-28T08:06:45.158Z,21.40
2018-11-28T08:09:12.888Z,18.20
2018-11-28T08:11:40.710Z,19.83
2018-11-28T08:14:08.670Z,21.73
2018-11-28T08:16:36.597Z,19.50
2018-11-28T08:19:04.548Z,21.50
2018-11-28T08:21:32.381Z,20.50
2018-11-28T08:24:00.283Z,22.37
2018-11-28T08:26:28.032Z,24.70
2018-11-28T08:28:55.856Z,20.33
2018-11-28T08:31:23.727Z,22.00
2018-11-28T08:33:51.513Z,21.10
2018-11-28T08:36:19.326Z,19.23
2018-11-28T08:38:47.157Z,20.40
2018-11-28T08:41:14.896Z,21.10
2018-11-28T08:43:42.682Z,19.90
2018-11-28T08:46:10.536Z,20.80
2018-11-28T08:48:38.236Z,20.10
2018-11-28T08:51:06.125Z,20.30
2018-11-28T08:53:34.543Z,22.20
2018-11-28T08:56:02.242Z,20.20
2018-11-28T08:58:29.938Z,21.43
2018-11-28T09:00:58.015Z,18.77
2018-11-28T09:03:25.664Z,19.00
2018-11-28T09:05:53.335Z,19.00
2018-11-28T09:08:21.059Z,21.47
2018-11-28T09:10:48.826Z,21.20
2018-11-28T09:13:16.597Z,22.90
2018-11-28T09:15:44.290Z,27.63
2018-11-28T09:18:12.228Z,26.40
2018-11-28T09:20:39.937Z,27.00
2018-11-28T09:23:07.770Z,26.47
2018-11-28T09:25:35.487Z,23.63
2018-11-28T09:28:03.130Z,22.47
2018-11-28T09:30:30.886Z,22.30
2018-11-28T09:32:58.635Z,22.07
2018-11-28T09:35:26.495Z,23.47
2018-11-28T09:37:54.317Z,22.27
2018-11-28T09:40:25.129Z,23.20
2018-11-28T09:42:55.049Z,23.27
2018-11-28T09:45:22.948Z,23.27
2018-11-28T09:47:50.953Z,22.43
2018-11-28T09:50:19.831Z,21.73
2018-11-28T09:52:47.627Z,23.73
2018-11-28T09:55:17.523Z,22.70
2018-11-28T09:57:45.286Z,21.77
2018-11-28T10:00:17.110Z,23.57
2018-11-28T10:02:44.888Z,22.20
2018-11-28T10:05:15.786Z,23.70
2018-11-28T10:07:43.703Z,25.07
2018-11-28T10:10:12.147Z,23.63
2018-11-28T10:12:41.967Z,20.90
2018-11-28T10:15:15.873Z,23.30
2018-11-28T10:17:43.792Z,22.10
2018-11-28T10:20:12.867Z,21.57
2018-11-28T10:22:41.404Z,22.33
2018-11-28T10:25:10.824Z,20.07
2018-11-28T10:27:38.716Z,20.83
2018-11-28T10:30:13.943Z,22.60
2018-11-28T10:32:41.817Z,23.23
2018-11-28T10:35:09.691Z,24.90
2018-11-28T10:37:37.360Z,20.67
2018-11-28T10:40:08.964Z,22.30
2018-11-28T10:42:36.749Z,20.17
2018-11-28T10:45:05.953Z,19.90
2018-11-28T10:47:33.596Z,20.00
2018-11-28T10:50:01.348Z,19.20
2018-11-28T10:52:29.055Z,22.20
2018-11-28T10:54:56.802Z,18.10
2018-11-28T10:57:24.670Z,18.10
2018-11-28T10:59:52.454Z,16.93
2018-11-28T11:02:25.798Z,16.60
2018-11-28T11:04:59.066Z,18.30
2018-11-28T11:07:32.453Z,15.57
2018-11-28T11:10:05.755Z,15.87
2018-11-28T11:12:39.226Z,15.37
2018-11-28T11:15:07.002Z,17.80
2018-11-28T11:17:34.632Z,16.57
2018-11-28T11:20:02.424Z,17.13
2018-11-28T11:22:30.108Z,18.90
2018-11-28T11:24:57.712Z,16.10
2018-11-28T11:27:25.587Z,16.97
2018-11-28T11:29:54.000Z,15.60
2018-11-28T11:32:21.907Z,17.80
2018-11-28T11:34:49.604Z,16.97
2018-11-28T11:37:17.380Z,19.23
2018-11-28T11:39:45.458Z,15.20
2018-11-28T11:42:13.212Z,15.80
2018-11-28T11:44:41.141Z,13.80
2018-11-28T11:47:09.060Z,15.63
2018-11-28T11:49:36.821Z,15.37
2018-11-28T11:52:04.589Z,13.73
2018-11-28T11:54:32.266Z,14.47
2018-11-28T11:57:00.057Z,16.20
2018-11-28T11:59:27.824Z,16.43
2018-11-28T12:01:55.651Z,15.10
2018-11-28T12:04:23.426Z,14.70
2018-11-28T12:06:51.320Z,13.97
2018-11-28T12:09:19.096Z,12.97
2018-11-28T12:11:46.823Z,13.70
2018-11-28T12:14:14.563Z,12.90
2018-11-28T12:16:42.342Z,11.67
2018-11-28T12:19:10.024Z,12.03
2018-11-28T12:21:37.761Z,13.07
2018-11-28T12:24:05.552Z,13.53
2018-11-28T12:26:33.475Z,13.40
2018-11-28T12:29:01.267Z,11.90
2018-11-28T12:31:29.202Z,13.57
2018-11-28T12:33:56.909Z,12.80
2018-11-28T12:36:24.623Z,13.90
2018-11-28T12:38:52.317Z,11.97
2018-11-28T12:41:20.045Z,11.50
2018-11-28T12:43:47.743Z,12.13
2018-11-28T12:46:15.379Z,16.67
2018-11-28T12:48:43.091Z,10.30
2018-11-28T12:51:10.791Z,11.00
2018-11-28T12:53:38.588Z,11.60
2018-11-28T12:56:06.338Z,9.10
2018-11-28T12:58:34.140Z,11.07
2018-11-28T13:01:01.932Z,11.17
2018-11-28T13:03:29.675Z,10.80
2018-11-28T13:05:57.452Z,10.60
2018-11-28T13:08:25.175Z,9.93
2018-11-28T13:10:53.023Z,11.37
2018-11-28T13:13:20.694Z,11.37
2018-11-28T13:15:48.394Z,10.50
2018-11-28T13:18:16.121Z,10.10
2018-11-28T13:20:43.852Z,11.67
2018-11-28T13:23:13.760Z,10.70
2018-11-28T13:25:41.631Z,10.90
2018-11-28T13:28:09.566Z,11.77
2018-11-28T13:30:37.597Z,10.60
2018-11-28T13:33:05.443Z,10.40
2018-11-28T13:35:33.167Z,10.10
2018-11-28T13:38:07.071Z,9.83
2018-11-28T13:40:34.820Z,9.77
2018-11-28T13:43:02.651Z,11.33
2018-11-28T13:45:32.583Z,9.40
2018-11-28T13:48:00.387Z,8.93
2018-11-28T13:50:28.261Z,9.20
2018-11-28T13:52:56.980Z,8.30
2018-11-28T13:55:42.026Z,9.00
2018-11-28T13:58:01.106Z,9.70
2018-11-28T14:00:28.772Z,8.30
2018-11-28T14:02:56.478Z,8.83
2018-11-28T14:05:24.150Z,10.93
2018-11-28T14:07:51.821Z,11.80
2018-11-28T14:10:19.487Z,9.73
2018-11-28T14:12:48.123Z,10.47
2018-11-28T14:15:18.094Z,10.00
2018-11-28T14:18:18.261Z,10.00
2018-11-28T14:20:45.950Z,12.53
2018-11-28T14:23:13.590Z,8.60
2018-11-28T14:25:41.265Z,10.13
2018-11-28T14:28:09.566Z,10.40
2018-11-28T14:30:39.334Z,9.60
2018-11-28T14:33:07.128Z,10.27
2018-11-28T14:35:34.930Z,10.90
2018-11-28T14:38:03.073Z,11.03
2018-11-28T14:40:37.037Z,11.03
2018-11-28T14:43:05.548Z,11.47
2018-11-28T14:45:33.384Z,9.80
2018-11-28T14:50:40.482Z,11.13
2018-11-28T14:53:12.432Z,11.37
2018-11-28T14:55:42.353Z,10.77
2018-11-28T14:58:16.585Z,11.90
2018-11-28T15:00:46.483Z,13.03
2018-11-28T15:03:24.696Z,12.60
2018-11-28T15:07:03.261Z,13.77
2018-11-28T15:09:38.312Z,13.67
2018-11-28T15:15:06.406Z,10.53
2018-11-28T15:17:42.524Z,13.50
2018-11-28T15:20:11.305Z,11.97
2018-11-28T15:22:42.320Z,12.93
2018-11-28T15:25:12.063Z,13.10
2018-11-28T15:27:39.958Z,12.93
2018-11-28T15:30:09.479Z,11.20
2018-11-28T15:32:39.023Z,12.20
2018-11-28T15:35:14.499Z,12.80
2018-11-28T15:37:43.432Z,12.80
2018-11-28T15:40:19.717Z,17.30
2018-11-28T15:48:12.215Z,17.03
2018-11-28T15:50:42.331Z,14.83
2018-11-28T15:53:11.427Z,13.63
2018-11-28T15:55:47.333Z,13.73
2018-11-28T16:01:13.845Z,14.93
2018-11-28T16:06:40.121Z,14.50
2018-11-28T16:09:14.539Z,11.43
2018-11-28T16:11:44.828Z,12.03
2018-11-28T16:14:24.690Z,17.30
2018-11-28T16:16:53.160Z,13.77
2018-11-28T16:22:14.911Z,9.97
2018-11-28T16:24:49.426Z,11.60
2018-11-28T16:27:17.581Z,10.63
2018-11-28T16:29:53.416Z,11.97
2018-11-28T16:35:08.119Z,14.77
2018-11-28T16:37:44.644Z,15.27
2018-11-28T16:45:59.484Z,17.00
2018-11-28T16:48:41.198Z,17.10
2018-11-28T16:51:22.864Z,15.70
2018-11-28T16:59:30.747Z,15.80
2018-11-28T17:07:20.140Z,18.93
2018-11-28T17:10:01.028Z,17.93
2018-11-28T17:18:03.536Z,18.10
2018-11-28T17:20:49.030Z,16.50
2018-11-28T17:26:16.240Z,16.20
2018-11-28T17:34:36.216Z,16.40
2018-11-28T17:42:37.961Z,16.57
2018-11-28T17:50:20.201Z,15.50
2018-11-28T17:53:03.348Z,15.20
2018-11-28T17:55:36.369Z,16.80
2018-11-28T17:58:05.457Z,15.40
2018-11-28T18:00:34.152Z,14.10
2018-11-28T18:03:02.206Z,17.00
2018-11-28T18:05:32.448Z,14.60
2018-11-28T18:08:00.177Z,14.47
2018-11-28T18:10:29.400Z,17.37
2018-11-28T18:13:09.796Z,16.50
2018-11-28T18:15:41.199Z,16.00
2018-11-28T18:18:12.487Z,20.00
2018-11-28T18:20:40.486Z,15.80
2018-11-28T18:23:09.871Z,14.33
2018-11-28T18:25:39.445Z,17.30
2018-11-28T18:28:08.774Z,15.60
2018-11-28T18:30:37.287Z,16.33
2018-11-28T18:33:05.751Z,16.80
2018-11-28T18:35:33.558Z,18.53
2018-11-28T18:38:01.333Z,17.20
2018-11-28T18:40:29.349Z,17.37
2018-11-28T18:43:05.643Z,17.87
2018-11-28T18:45:36.366Z,16.77
2018-11-28T18:48:03.219Z,17.90
2018-11-28T18:50:31.779Z,16.30
2018-11-28T18:52:59.919Z,15.10
2018-11-28T18:55:28.149Z,13.93
2018-11-28T18:57:56.853Z,14.13
2018-11-28T19:00:26.318Z,16.70
2018-11-28T19:02:56.304Z,15.33
2018-11-28T19:05:25.815Z,15.97
2018-11-28T19:07:58.540Z,15.80
2018-11-28T19:10:27.129Z,15.10
2018-11-28T19:12:55.128Z,17.70
2018-11-28T19:15:29.384Z,17.17
2018-11-28T19:17:58.922Z,17.20
2018-11-28T19:20:27.556Z,20.53
2018-11-28T19:22:57.239Z,19.33
2018-11-28T19:25:27.788Z,18.77
2018-11-28T19:27:59.330Z,16.90
2018-11-28T19:30:32.158Z,16.00
2018-11-28T19:33:00.234Z,17.23
2018-11-28T19:35:28.433Z,14.10
2018-11-28T19:37:56.752Z,15.67
2018-11-28T19:40:32.204Z,16.37
2018-11-28T19:43:00.857Z,15.87
2018-11-28T19:45:28.851Z,17.40
2018-11-28T19:47:56.960Z,15.63
2018-11-28T19:50:29.626Z,17.17
2018-11-28T19:52:57.547Z,16.90
2018-11-28T19:55:25.371Z,16.43
2018-11-28T19:57:53.663Z,14.43
2018-11-28T20:00:21.832Z,15.20
2018-11-28T20:02:49.996Z,16.70
2018-11-28T20:05:17.980Z,15.73
2018-11-28T20:07:47.960Z,14.23
2018-11-28T20:10:17.416Z,13.77
2018-11-28T20:12:46.500Z,15.13
2018-11-28T20:15:20.514Z,17.10
2018-11-28T20:17:49.132Z,14.57
2018-11-28T20:20:17.162Z,15.67
2018-11-28T20:22:45.678Z,15.93
2018-11-28T20:25:15.872Z,16.73
2018-11-28T20:27:45.264Z,14.60
2018-11-28T20:30:20.722Z,15.60
2018-11-28T20:32:48.667Z,16.00
2018-11-28T20:35:16.478Z,16.00
2018-11-28T20:37:44.857Z,17.43
2018-11-28T20:40:15.253Z,17.70
2018-11-28T20:42:44.872Z,15.80
2018-11-28T20:45:13.372Z,14.17
2018-11-28T20:47:42.059Z,16.30
2018-11-28T20:50:14.687Z,16.97
2018-11-28T20:52:45.867Z,15.47
2018-11-28T20:55:13.681Z,16.03
2018-11-28T20:57:41.503Z,15.63
2018-11-28T21:00:11.996Z,17.37
2018-11-28T21:02:39.757Z,16.80
2018-11-28T21:05:08.395Z,17.50
2018-11-28T21:07:36.936Z,16.43
2018-11-28T21:10:13.423Z,18.40
2018-11-28T21:12:41.803Z,18.53
2018-11-28T21:15:10.548Z,17.03
2018-11-28T21:17:40.576Z,16.27
2018-11-28T21:20:16.151Z,14.53
2018-11-28T21:22:47.463Z,15.70
2018-11-28T21:25:16.274Z,14.10
2018-11-28T21:27:47.441Z,17.93
2018-11-28T21:30:17.858Z,16.40
2018-11-28T21:32:46.818Z,17.50
2018-11-28T21:35:17.263Z,15.23
2018-11-28T21:37:46.502Z,16.10
2018-11-28T21:40:15.460Z,15.43
2018-11-28T21:42:43.508Z,16.03
2018-11-28T21:45:15.423Z,16.10
2018-11-28T21:47:44.606Z,17.93
2018-11-28T21:50:20.529Z,16.70
2018-11-28T21:52:50.364Z,15.80
2018-11-28T21:55:21.286Z,16.43
2018-11-28T21:57:49.296Z,17.27
2018-11-28T22:00:26.531Z,18.00
2018-11-28T22:02:56.325Z,16.50
2018-11-28T22:05:30.090Z,16.87
2018-11-28T22:07:59.967Z,15.57
2018-11-28T22:10:29.712Z,16.00
2018-11-28T22:13:01.315Z,17.80
2018-11-28T22:15:33.836Z,17.70
2018-11-28T22:18:03.087Z,15.53
2018-11-28T22:20:30.991Z,17.63
2018-11-28T22:23:00.659Z,16.57
2018-11-28T22:25:33.485Z,15.17
2018-11-28T22:28:05.729Z,15.97
2018-11-28T22:30:39.879Z,17.03
2018-11-28T22:33:10.492Z,15.47
2018-11-28T22:35:39.824Z,15.30
2018-11-28T22:38:07.587Z,17.10
2018-11-28T22:40:35.415Z,15.87
2018-11-28T22:43:03.879Z,17.23
2018-11-28T22:45:33.831Z,15.53
2018-11-28T22:48:02.315Z,13.03
2018-11-28T22:50:30.825Z,16.80
2018-11-28T22:52:59.506Z,14.90
2018-11-28T22:55:28.158Z,16.83
2018-11-28T22:57:57.116Z,14.17
2018-11-28T23:00:32.452Z,16.07
2018-11-28T23:03:08.204Z,16.83
2018-11-28T23:05:46.875Z,17.07
2018-11-28T23:08:17.516Z,15.23
2018-11-28T23:10:46.271Z,14.00
2018-11-28T23:13:16.422Z,14.40
2018-11-28T23:15:45.237Z,15.37
2018-11-28T23:18:14.176Z,15.37
2018-11-28T23:20:42.783Z,15.70
2018-11-28T23:23:11.782Z,15.83
2018-11-28T23:25:40.310Z,16.33
2018-11-28T23:28:08.337Z,14.57
2018-11-28T23:30:37.687Z,18.80
2018-11-28T23:33:08.331Z,17.03
2018-11-28T23:35:35.876Z,17.37
2018-11-28T23:38:04.370Z,14.70
2018-11-28T23:40:32.413Z,16.57
2018-11-28T23:43:00.171Z,13.63
2018-11-28T23:45:28.227Z,15.07
2018-11-28T23:47:56.443Z,16.70
2018-11-28T23:50:26.272Z,15.60
2018-11-28T23:52:56.411Z,16.20
2018-11-28T23:55:27.552Z,16.57
2018-11-28T23:57:55.782Z,16.00
